sensor_id;sensor_type;location;lat;lon;timestamp;pressure;altitude;pressure_sealevel;temperature;humidity
38786;BME280;24535;45.508;12.252;2022-10-16T00:03:59;101947.25;;;21.78;62.30
38786;BME280;24535;45.508;12.252;2022-10-16T00:06:25;101955.47;;;21.77;62.13
38786;BME280;24535;45.508;12.252;2022-10-16T00:08:51;101951.94;;;21.76;62.68
38786;BME280;24535;45.508;12.252;2022-10-16T00:11:22;101953.06;;;21.73;62.56
38786;BME280;24535;45.508;12.252;2022-10-16T00:13:50;101954.91;;;21.73;62.55
38786;BME280;24535;45.508;12.252;2022-10-16T00:16:17;101962.97;;;21.73;62.67
38786;BME280;24535;45.508;12.252;2022-10-16T00:18:43;101962.97;;;21.73;62.40
38786;BME280;24535;45.508;12.252;2022-10-16T00:21:14;101960.84;;;21.77;62.98
38786;BME280;24535;45.508;12.252;2022-10-16T00:23:40;101960.00;;;21.76;63.23
38786;BME280;24535;45.508;12.252;2022-10-16T00:29:27;101954.75;;;21.75;63.20
38786;BME280;24535;45.508;12.252;2022-10-16T00:31:53;101950.38;;;21.73;63.20
38786;BME280;24535;45.508;12.252;2022-10-16T00:34:19;101951.81;;;21.68;63.16
38786;BME280;24535;45.508;12.252;2022-10-16T00:36:45;101952.94;;;21.65;62.84
38786;BME280;24535;45.508;12.252;2022-10-16T00:39:19;101959.44;;;21.63;63.05
38786;BME280;24535;45.508;12.252;2022-10-16T00:41:45;101948.47;;;21.56;63.33
38786;BME280;24535;45.508;12.252;2022-10-16T00:44:42;101953.66;;;21.58;63.47
38786;BME280;24535;45.508;12.252;2022-10-16T00:47:17;101959.75;;;21.60;63.53
38786;BME280;24535;45.508;12.252;2022-10-16T00:49:43;101967.09;;;21.58;63.00
38786;BME280;24535;45.508;12.252;2022-10-16T00:52:10;101966.81;;;21.61;63.34
38786;BME280;24535;45.508;12.252;2022-10-16T00:54:36;101961.72;;;21.58;63.41
38786;BME280;24535;45.508;12.252;2022-10-16T00:57:05;101964.28;;;21.59;63.19
38786;BME280;24535;45.508;12.252;2022-10-16T01:02:36;101969.91;;;21.56;63.49
38786;BME280;24535;45.508;12.252;2022-10-16T01:05:02;101961.59;;;21.50;63.48
38786;BME280;24535;45.508;12.252;2022-10-16T01:07:53;101967.78;;;21.50;63.72
38786;BME280;24535;45.508;12.252;2022-10-16T01:10:40;101959.19;;;21.46;63.59
38786;BME280;24535;45.508;12.252;2022-10-16T01:22:09;101966.00;;;21.41;63.49
38786;BME280;24535;45.508;12.252;2022-10-16T01:24:44;101965.72;;;21.44;63.46
38786;BME280;24535;45.508;12.252;2022-10-16T01:33:35;101964.16;;;21.41;62.78
38786;BME280;24535;45.508;12.252;2022-10-16T01:36:13;101969.22;;;21.44;63.20
38786;BME280;24535;45.508;12.252;2022-10-16T01:38:40;101967.66;;;21.42;62.92
38786;BME280;24535;45.508;12.252;2022-10-16T01:41:17;101966.00;;;21.41;63.13
38786;BME280;24535;45.508;12.252;2022-10-16T01:43:54;101960.47;;;21.42;63.28
38786;BME280;24535;45.508;12.252;2022-10-16T01:46:25;101961.31;;;21.43;62.99
38786;BME280;24535;45.508;12.252;2022-10-16T01:55:25;101978.13;;;21.45;62.82
38786;BME280;24535;45.508;12.252;2022-10-16T01:57:54;101973.59;;;21.45;62.49
38786;BME280;24535;45.508;12.252;2022-10-16T02:00:22;101982.34;;;21.47;62.56
38786;BME280;24535;45.508;12.252;2022-10-16T02:06:01;101983.03;;;21.50;62.35
38786;BME280;24535;45.508;12.252;2022-10-16T02:08:28;101980.38;;;21.50;62.74
38786;BME280;24535;45.508;12.252;2022-10-16T02:10:57;101984.72;;;21.51;62.91
38786;BME280;24535;45.508;12.252;2022-10-16T02:13:31;101972.75;;;21.45;63.19
38786;BME280;24535;45.508;12.252;2022-10-16T02:15:58;101980.78;;;21.45;63.17
38786;BME280;24535;45.508;12.252;2022-10-16T02:18:27;101986.56;;;21.50;63.11
38786;BME280;24535;45.508;12.252;2022-10-16T02:21:27;101977.53;;;21.51;62.75
38786;BME280;24535;45.508;12.252;2022-10-16T02:26:44;101981.09;;;21.52;62.80
38786;BME280;24535;45.508;12.252;2022-10-16T02:29:14;101976.84;;;21.49;62.41
38786;BME280;24535;45.508;12.252;2022-10-16T02:31:45;101977.00;;;21.47;62.82
38786;BME280;24535;45.508;12.252;2022-10-16T02:34:58;101992.78;;;21.51;62.72
38786;BME280;24535;45.508;12.252;2022-10-16T02:37:00;101986.00;;;21.46;63.06
38786;BME280;24535;45.508;12.252;2022-10-16T02:39:28;101983.19;;;21.48;62.93
38786;BME280;24535;45.508;12.252;2022-10-16T02:41:54;102002.09;;;21.46;62.87
38786;BME280;24535;45.508;12.252;2022-10-16T02:44:19;101994.34;;;21.43;62.95
38786;BME280;24535;45.508;12.252;2022-10-16T02:50:07;102006.78;;;21.44;63.10
38786;BME280;24535;45.508;12.252;2022-10-16T02:52:32;101995.75;;;21.38;63.17
38786;BME280;24535;45.508;12.252;2022-10-16T02:54:58;102008.03;;;21.40;63.25
38786;BME280;24535;45.508;12.252;2022-10-16T02:57:39;102010.13;;;21.46;63.01
38786;BME280;24535;45.508;12.252;2022-10-16T03:00:07;102011.41;;;21.42;63.35
38786;BME280;24535;45.508;12.252;2022-10-16T03:05:19;102009.03;;;21.39;62.86
38786;BME280;24535;45.508;12.252;2022-10-16T03:07:45;102008.03;;;21.40;63.32
38786;BME280;24535;45.508;12.252;2022-10-16T03:10:10;102008.31;;;21.37;63.24
38786;BME280;24535;45.508;12.252;2022-10-16T03:12:36;102001.66;;;21.32;63.41
38786;BME280;24535;45.508;12.252;2022-10-16T03:18:08;102016.63;;;21.24;63.96
38786;BME280;24535;45.508;12.252;2022-10-16T03:20:33;102009.69;;;21.22;63.73
38786;BME280;24535;45.508;12.252;2022-10-16T03:22:58;102008.84;;;21.21;64.00
38786;BME280;24535;45.508;12.252;2022-10-16T03:25:24;102001.38;;;21.15;64.07
38786;BME280;24535;45.508;12.252;2022-10-16T03:27:49;102008.59;;;21.15;63.80
38786;BME280;24535;45.508;12.252;2022-10-16T03:30:15;102008.13;;;21.10;64.21
38786;BME280;24535;45.508;12.252;2022-10-16T03:35:31;102002.78;;;21.00;64.37
38786;BME280;24535;45.508;12.252;2022-10-16T03:38:00;102003.91;;;20.97;64.66
38786;BME280;24535;45.508;12.252;2022-10-16T03:40:26;102007.56;;;20.96;64.33
38786;BME280;24535;45.508;12.252;2022-10-16T03:42:51;102014.91;;;20.94;64.66
38786;BME280;24535;45.508;12.252;2022-10-16T03:45:39;102008.97;;;20.91;64.64
38786;BME280;24535;45.508;12.252;2022-10-16T03:48:06;101999.22;;;20.90;65.02
38786;BME280;24535;45.508;12.252;2022-10-16T03:50:32;102014.72;;;20.86;64.63
38786;BME280;24535;45.508;12.252;2022-10-16T03:55:37;102017.13;;;20.80;64.43
38786;BME280;24535;45.508;12.252;2022-10-16T03:58:03;102013.03;;;20.76;64.32
38786;BME280;24535;45.508;12.252;2022-10-16T04:00:28;102016.81;;;20.73;64.46
38786;BME280;24535;45.508;12.252;2022-10-16T04:02:54;102016.97;;;20.71;64.68
38786;BME280;24535;45.508;12.252;2022-10-16T04:05:19;102010.78;;;20.71;65.01
38786;BME280;24535;45.508;12.252;2022-10-16T04:07:45;102007.53;;;20.67;65.08
38786;BME280;24535;45.508;12.252;2022-10-16T04:13:19;102009.78;;;20.62;64.92
38786;BME280;24535;45.508;12.252;2022-10-16T04:18:57;102020.47;;;20.62;64.87
38786;BME280;24535;45.508;12.252;2022-10-16T04:24:33;102017.81;;;20.62;65.20
38786;BME280;24535;45.508;12.252;2022-10-16T04:26:59;102018.19;;;20.58;65.15
38786;BME280;24535;45.508;12.252;2022-10-16T04:29:24;102014.56;;;20.59;65.41
38786;BME280;24535;45.508;12.252;2022-10-16T04:31:49;102017.50;;;20.56;65.52
38786;BME280;24535;45.508;12.252;2022-10-16T04:34:15;102022.84;;;20.56;64.87
38786;BME280;24535;45.508;12.252;2022-10-16T04:36:40;102017.34;;;20.57;65.24
38786;BME280;24535;45.508;12.252;2022-10-16T04:39:06;102025.13;;;20.60;65.22
38786;BME280;24535;45.508;12.252;2022-10-16T04:41:33;102028.50;;;20.62;65.28
38786;BME280;24535;45.508;12.252;2022-10-16T04:43:59;102034.84;;;20.61;65.11
38786;BME280;24535;45.508;12.252;2022-10-16T04:46:24;102035.81;;;20.60;65.22
38786;BME280;24535;45.508;12.252;2022-10-16T04:48:50;102031.03;;;20.64;65.45
38786;BME280;24535;45.508;12.252;2022-10-16T04:51:16;102026.53;;;20.64;65.20
38786;BME280;24535;45.508;12.252;2022-10-16T04:53:41;102026.13;;;20.69;64.94
38786;BME280;24535;45.508;12.252;2022-10-16T04:56:07;102035.84;;;20.70;64.80
38786;BME280;24535;45.508;12.252;2022-10-16T04:58:32;102039.25;;;20.72;64.58
38786;BME280;24535;45.508;12.252;2022-10-16T05:00:58;102033.16;;;20.70;64.40
38786;BME280;24535;45.508;12.252;2022-10-16T05:03:54;102031.06;;;20.73;64.68
38786;BME280;24535;45.508;12.252;2022-10-16T05:06:19;102033.75;;;20.73;64.14
38786;BME280;24535;45.508;12.252;2022-10-16T05:08:51;102034.72;;;20.72;64.51
38786;BME280;24535;45.508;12.252;2022-10-16T05:11:34;102050.94;;;20.71;64.12
38786;BME280;24535;45.508;12.252;2022-10-16T05:14:01;102047.13;;;20.64;64.30
38786;BME280;24535;45.508;12.252;2022-10-16T05:16:27;102049.94;;;20.62;64.27
38786;BME280;24535;45.508;12.252;2022-10-16T05:18:52;102054.31;;;20.63;64.62
38786;BME280;24535;45.508;12.252;2022-10-16T05:21:19;102047.97;;;20.64;64.49
38786;BME280;24535;45.508;12.252;2022-10-16T05:23:45;102050.50;;;20.66;64.08
38786;BME280;24535;45.508;12.252;2022-10-16T05:26:10;102042.75;;;20.63;63.85
38786;BME280;24535;45.508;12.252;2022-10-16T05:31:42;102052.31;;;20.56;63.96
38786;BME280;24535;45.508;12.252;2022-10-16T05:34:16;102056.38;;;20.50;63.98
38786;BME280;24535;45.508;12.252;2022-10-16T05:36:42;102058.19;;;20.49;64.37
38786;BME280;24535;45.508;12.252;2022-10-16T05:42:36;102065.88;;;20.43;63.77
38786;BME280;24535;45.508;12.252;2022-10-16T05:52:19;102077.94;;;20.28;64.47
38786;BME280;24535;45.508;12.252;2022-10-16T05:54:45;102080.00;;;20.24;64.30
38786;BME280;24535;45.508;12.252;2022-10-16T05:57:10;102091.72;;;20.23;64.15
38786;BME280;24535;45.508;12.252;2022-10-16T06:02:57;102095.63;;;20.19;64.00
38786;BME280;24535;45.508;12.252;2022-10-16T06:05:24;102097.47;;;20.18;64.20
38786;BME280;24535;45.508;12.252;2022-10-16T06:11:15;102105.00;;;20.13;63.97
38786;BME280;24535;45.508;12.252;2022-10-16T06:13:41;102103.03;;;20.06;64.00
38786;BME280;24535;45.508;12.252;2022-10-16T06:16:08;102112.47;;;20.10;63.72
38786;BME280;24535;45.508;12.252;2022-10-16T06:18:34;102115.28;;;20.08;64.07
38786;BME280;24535;45.508;12.252;2022-10-16T06:20:59;102113.84;;;20.04;63.94
38786;BME280;24535;45.508;12.252;2022-10-16T06:23:31;102124.03;;;20.10;63.94
38786;BME280;24535;45.508;12.252;2022-10-16T06:28:32;102125.06;;;20.19;63.93
38786;BME280;24535;45.508;12.252;2022-10-16T06:34:24;102131.06;;;20.32;63.29
38786;BME280;24535;45.508;12.252;2022-10-16T06:44:30;102145.47;;;20.41;62.52
38786;BME280;24535;45.508;12.252;2022-10-16T06:46:57;102154.88;;;20.35;62.76
38786;BME280;24535;45.508;12.252;2022-10-16T06:49:22;102162.06;;;20.35;62.89
38786;BME280;24535;45.508;12.252;2022-10-16T06:55:06;102161.09;;;20.36;62.81
38786;BME280;24535;45.508;12.252;2022-10-16T06:58:09;102171.53;;;20.39;62.50
38786;BME280;24535;45.508;12.252;2022-10-16T07:00:35;102174.81;;;20.42;62.45
38786;BME280;24535;45.508;12.252;2022-10-16T07:03:00;102179.16;;;20.43;62.49
38786;BME280;24535;45.508;12.252;2022-10-16T07:05:26;102178.91;;;20.46;62.55
38786;BME280;24535;45.508;12.252;2022-10-16T07:07:51;102192.16;;;20.48;62.54
38786;BME280;24535;45.508;12.252;2022-10-16T07:13:40;102202.28;;;20.44;62.28
38786;BME280;24535;45.508;12.252;2022-10-16T07:19:55;102204.97;;;20.44;62.56
38786;BME280;24535;45.508;12.252;2022-10-16T07:22:21;102202.41;;;20.43;62.53
38786;BME280;24535;45.508;12.252;2022-10-16T07:27:45;102213.28;;;20.62;62.47
38786;BME280;24535;45.508;12.252;2022-10-16T07:30:11;102210.06;;;20.68;62.50
38786;BME280;24535;45.508;12.252;2022-10-16T07:32:37;102214.63;;;20.78;62.41
38786;BME280;24535;45.508;12.252;2022-10-16T07:35:18;102213.25;;;20.83;61.85
38786;BME280;24535;45.508;12.252;2022-10-16T07:40:21;102227.69;;;20.92;61.92
38786;BME280;24535;45.508;12.252;2022-10-16T07:49:33;102237.09;;;21.17;61.83
38786;BME280;24535;45.508;12.252;2022-10-16T07:54:52;102233.75;;;21.24;61.26
38786;BME280;24535;45.508;12.252;2022-10-16T07:57:17;102234.44;;;21.27;61.02
38786;BME280;24535;45.508;12.252;2022-10-16T07:59:45;102235.59;;;21.24;61.44
38786;BME280;24535;45.508;12.252;2022-10-16T08:02:11;102228.97;;;21.28;61.33
38786;BME280;24535;45.508;12.252;2022-10-16T08:08:02;102248.19;;;21.33;61.28
38786;BME280;24535;45.508;12.252;2022-10-16T08:25:05;102246.00;;;21.48;61.88
38786;BME280;24535;45.508;12.252;2022-10-16T08:30:52;102249.13;;;21.63;62.02
38786;BME280;24535;45.508;12.252;2022-10-16T08:33:29;102256.22;;;21.73;61.85
38786;BME280;24535;45.508;12.252;2022-10-16T08:53:26;102265.75;;;22.26;60.36
38786;BME280;24535;45.508;12.252;2022-10-16T09:58:43;102273.31;;;24.09;56.54
38786;BME280;24535;45.508;12.252;2022-10-16T10:01:14;102273.31;;;24.09;56.62
38786;BME280;24535;45.508;12.252;2022-10-16T10:46:44;102247.91;;;23.93;56.15
38786;BME280;24535;45.508;12.252;2022-10-16T11:50:28;102230.25;;;23.91;57.05
38786;BME280;24535;45.508;12.252;2022-10-16T11:56:18;102237.47;;;23.90;56.84
38786;BME280;24535;45.508;12.252;2022-10-16T12:08:47;102250.84;;;23.82;58.06
38786;BME280;24535;45.508;12.252;2022-10-16T12:25:42;102242.63;;;23.84;57.36
38786;BME280;24535;45.508;12.252;2022-10-16T12:30:43;102243.63;;;23.83;57.72
38786;BME280;24535;45.508;12.252;2022-10-16T12:39:23;102248.16;;;23.82;57.26
38786;BME280;24535;45.508;12.252;2022-10-16T12:46:52;102249.69;;;23.85;57.54
38786;BME280;24535;45.508;12.252;2022-10-16T12:49:38;102249.97;;;23.82;57.31
38786;BME280;24535;45.508;12.252;2022-10-16T12:52:34;102257.91;;;23.83;57.40
38786;BME280;24535;45.508;12.252;2022-10-16T13:17:11;102250.22;;;23.88;57.32
38786;BME280;24535;45.508;12.252;2022-10-16T13:32:29;102258.28;;;23.88;56.99
38786;BME280;24535;45.508;12.252;2022-10-16T13:34:56;102254.75;;;23.88;56.81
38786;BME280;24535;45.508;12.252;2022-10-16T13:56:42;102270.22;;;23.86;57.24
38786;BME280;24535;45.508;12.252;2022-10-16T13:59:26;102265.28;;;23.81;57.11
38786;BME280;24535;45.508;12.252;2022-10-16T14:29:24;102277.31;;;23.87;57.81
38786;BME280;24535;45.508;12.252;2022-10-16T14:47:37;102269.81;;;23.81;57.60
38786;BME280;24535;45.508;12.252;2022-10-16T14:53:34;102265.44;;;23.80;57.99
38786;BME280;24535;45.508;12.252;2022-10-16T15:03:26;102268.44;;;23.77;56.85
38786;BME280;24535;45.508;12.252;2022-10-16T15:05:51;102278.34;;;23.76;58.06
38786;BME280;24535;45.508;12.252;2022-10-16T15:08:17;102274.81;;;23.76;58.17
38786;BME280;24535;45.508;12.252;2022-10-16T15:11:16;102273.97;;;23.75;57.41
38786;BME280;24535;45.508;12.252;2022-10-16T15:13:43;102280.88;;;23.78;58.06
38786;BME280;24535;45.508;12.252;2022-10-16T15:16:14;102285.44;;;23.77;57.87
38786;BME280;24535;45.508;12.252;2022-10-16T15:18:40;102283.19;;;23.73;58.20
38786;BME280;24535;45.508;12.252;2022-10-16T15:24:27;102285.03;;;23.72;58.41
38786;BME280;24535;45.508;12.252;2022-10-16T15:41:54;102289.28;;;23.65;59.68
38786;BME280;24535;45.508;12.252;2022-10-16T15:53:42;102292.72;;;23.57;59.98
38786;BME280;24535;45.508;12.252;2022-10-16T16:01:10;102298.97;;;23.58;60.48
38786;BME280;24535;45.508;12.252;2022-10-16T16:06:14;102304.38;;;23.58;60.70
38786;BME280;24535;45.508;12.252;2022-10-16T16:11:46;102302.25;;;23.52;60.02
38786;BME280;24535;45.508;12.252;2022-10-16T16:23:43;102306.53;;;23.44;61.08
38786;BME280;24535;45.508;12.252;2022-10-16T16:38:47;102315.50;;;23.35;62.23
38786;BME280;24535;45.508;12.252;2022-10-16T16:41:50;102321.88;;;23.34;61.94
38786;BME280;24535;45.508;12.252;2022-10-16T16:47:37;102325.84;;;23.30;62.73
38786;BME280;24535;45.508;12.252;2022-10-16T16:50:04;102330.69;;;23.27;62.62
38786;BME280;24535;45.508;12.252;2022-10-16T16:52:30;102329.69;;;23.28;62.77
38786;BME280;24535;45.508;12.252;2022-10-16T16:55:14;102331.81;;;23.24;63.22
38786;BME280;24535;45.508;12.252;2022-10-16T16:57:39;102334.50;;;23.24;62.84
38786;BME280;24535;45.508;12.252;2022-10-16T17:04:05;102345.53;;;23.21;62.77
38786;BME280;24535;45.508;12.252;2022-10-16T17:06:30;102351.78;;;23.22;62.78
38786;BME280;24535;45.508;12.252;2022-10-16T17:08:57;102355.75;;;23.17;62.75
38786;BME280;24535;45.508;12.252;2022-10-16T17:11:49;102355.88;;;23.16;63.03
38786;BME280;24535;45.508;12.252;2022-10-16T17:34:09;102390.59;;;23.00;63.82
38786;BME280;24535;45.508;12.252;2022-10-16T17:36:55;102395.13;;;22.99;63.05
38786;BME280;24535;45.508;12.252;2022-10-16T17:39:21;102397.13;;;22.97;63.50
38786;BME280;24535;45.508;12.252;2022-10-16T17:41:47;102400.78;;;22.96;63.41
38786;BME280;24535;45.508;12.252;2022-10-16T17:44:22;102401.09;;;22.93;63.63
38786;BME280;24535;45.508;12.252;2022-10-16T17:55:16;102418.00;;;22.84;63.87
38786;BME280;24535;45.508;12.252;2022-10-16T18:06:47;102414.47;;;22.64;62.96
38786;BME280;24535;45.508;12.252;2022-10-16T18:09:15;102429.06;;;22.61;63.51
38786;BME280;24535;45.508;12.252;2022-10-16T18:11:42;102431.28;;;22.56;63.59
38786;BME280;24535;45.508;12.252;2022-10-16T18:18:07;102437.66;;;22.45;63.74
38786;BME280;24535;45.508;12.252;2022-10-16T18:23:09;102448.25;;;22.37;63.72
38786;BME280;24535;45.508;12.252;2022-10-16T18:25:57;102443.28;;;22.33;64.13
38786;BME280;24535;45.508;12.252;2022-10-16T18:28:44;102454.44;;;22.28;64.30
38786;BME280;24535;45.508;12.252;2022-10-16T18:31:12;102456.41;;;22.26;63.82
38786;BME280;24535;45.508;12.252;2022-10-16T18:36:18;102460.59;;;22.19;63.44
38786;BME280;24535;45.508;12.252;2022-10-16T18:38:44;102457.94;;;22.19;63.72
38786;BME280;24535;45.508;12.252;2022-10-16T18:41:10;102455.13;;;22.20;64.15
38786;BME280;24535;45.508;12.252;2022-10-16T18:43:37;102464.13;;;22.19;63.68
38786;BME280;24535;45.508;12.252;2022-10-16T18:46:05;102457.34;;;22.15;64.09
38786;BME280;24535;45.508;12.252;2022-10-16T18:55:05;102464.75;;;22.02;64.54
38786;BME280;24535;45.508;12.252;2022-10-16T18:57:31;102470.78;;;21.94;64.52
38786;BME280;24535;45.508;12.252;2022-10-16T18:59:56;102471.78;;;21.93;64.33
38786;BME280;24535;45.508;12.252;2022-10-16T19:02:42;102478.25;;;21.91;65.23
38786;BME280;24535;45.508;12.252;2022-10-16T19:05:08;102484.63;;;21.90;64.86
38786;BME280;24535;45.508;12.252;2022-10-16T19:13:39;102483.59;;;21.81;65.20
38786;BME280;24535;45.508;12.252;2022-10-16T19:26:17;102495.25;;;21.70;64.36
38786;BME280;24535;45.508;12.252;2022-10-16T19:28:46;102500.91;;;21.67;64.74
38786;BME280;24535;45.508;12.252;2022-10-16T19:34:30;102502.50;;;21.59;65.36
38786;BME280;24535;45.508;12.252;2022-10-16T19:52:17;102523.78;;;21.51;65.17
38786;BME280;24535;45.508;12.252;2022-10-16T19:54:43;102528.53;;;21.47;64.89
38786;BME280;24535;45.508;12.252;2022-10-16T19:58:03;102521.63;;;21.44;65.43
38786;BME280;24535;45.508;12.252;2022-10-16T20:00:28;102513.38;;;21.36;65.52
38786;BME280;24535;45.508;12.252;2022-10-16T20:02:55;102523.13;;;21.37;65.73
38786;BME280;24535;45.508;12.252;2022-10-16T20:05:20;102526.78;;;21.36;65.54
38786;BME280;24535;45.508;12.252;2022-10-16T20:07:46;102526.53;;;21.39;65.52
38786;BME280;24535;45.508;12.252;2022-10-16T20:13:24;102526.78;;;21.36;65.27
38786;BME280;24535;45.508;12.252;2022-10-16T20:15:49;102531.41;;;21.34;65.39
38786;BME280;24535;45.508;12.252;2022-10-16T20:21:40;102543.47;;;21.29;65.60
38786;BME280;24535;45.508;12.252;2022-10-16T20:24:06;102537.91;;;21.20;65.97
38786;BME280;24535;45.508;12.252;2022-10-16T20:26:33;102542.41;;;21.20;65.68
38786;BME280;24535;45.508;12.252;2022-10-16T20:29:05;102545.09;;;21.20;66.27
38786;BME280;24535;45.508;12.252;2022-10-16T20:31:57;102550.47;;;21.20;65.84
38786;BME280;24535;45.508;12.252;2022-10-16T20:34:26;102555.81;;;21.20;65.80
38786;BME280;24535;45.508;12.252;2022-10-16T20:37:20;102546.72;;;21.11;65.84
38786;BME280;24535;45.508;12.252;2022-10-16T20:39:46;102546.81;;;21.10;65.89
38786;BME280;24535;45.508;12.252;2022-10-16T20:42:35;102559.84;;;21.14;66.16
38786;BME280;24535;45.508;12.252;2022-10-16T20:45:00;102552.06;;;21.11;65.80
38786;BME280;24535;45.508;12.252;2022-10-16T20:47:26;102558.88;;;21.15;65.68
38786;BME280;24535;45.508;12.252;2022-10-16T20:49:51;102556.22;;;21.15;65.49
38786;BME280;24535;45.508;12.252;2022-10-16T20:52:17;102554.75;;;21.11;65.73
38786;BME280;24535;45.508;12.252;2022-10-16T20:54:46;102564.34;;;21.14;65.60
38786;BME280;24535;45.508;12.252;2022-10-16T20:57:11;102562.66;;;21.13;65.49
38786;BME280;24535;45.508;12.252;2022-10-16T20:59:37;102564.63;;;21.11;65.25
38786;BME280;24535;45.508;12.252;2022-10-16T21:02:02;102571.09;;;21.08;65.56
38786;BME280;24535;45.508;12.252;2022-10-16T21:04:29;102573.69;;;20.98;65.49
38786;BME280;24535;45.508;12.252;2022-10-16T21:07:01;102569.88;;;21.01;65.48
38786;BME280;24535;45.508;12.252;2022-10-16T21:09:26;102570.88;;;21.00;65.02
38786;BME280;24535;45.508;12.252;2022-10-16T21:11:52;102573.41;;;21.02;65.48
38786;BME280;24535;45.508;12.252;2022-10-16T21:14:17;102581.72;;;20.98;65.18
38786;BME280;24535;45.508;12.252;2022-10-16T21:16:42;102577.31;;;20.97;65.48
38786;BME280;24535;45.508;12.252;2022-10-16T21:19:08;102577.84;;;20.91;65.17
38786;BME280;24535;45.508;12.252;2022-10-16T21:21:35;102585.13;;;20.89;65.52
38786;BME280;24535;45.508;12.252;2022-10-16T21:24:07;102586.59;;;20.82;65.23
38786;BME280;24535;45.508;12.252;2022-10-16T21:26:32;102600.13;;;20.81;65.48
38786;BME280;24535;45.508;12.252;2022-10-16T21:29:03;102597.06;;;20.74;65.47
38786;BME280;24535;45.508;12.252;2022-10-16T21:31:29;102592.84;;;20.71;65.69
38786;BME280;24535;45.508;12.252;2022-10-16T21:33:55;102588.56;;;20.69;65.84
38786;BME280;24535;45.508;12.252;2022-10-16T21:36:29;102597.59;;;20.68;65.77
38786;BME280;24535;45.508;12.252;2022-10-16T21:38:59;102607.44;;;20.67;66.13
38786;BME280;24535;45.508;12.252;2022-10-16T21:41:27;102609.28;;;20.67;66.17
38786;BME280;24535;45.508;12.252;2022-10-16T21:43:57;102613.41;;;20.71;66.01
38786;BME280;24535;45.508;12.252;2022-10-16T21:46:24;102608.78;;;20.73;66.33
38786;BME280;24535;45.508;12.252;2022-10-16T21:48:58;102617.78;;;20.72;66.08
38786;BME280;24535;45.508;12.252;2022-10-16T21:51:38;102618.78;;;20.71;65.94
38786;BME280;24535;45.508;12.252;2022-10-16T21:54:22;102621.19;;;20.74;66.09
38786;BME280;24535;45.508;12.252;2022-10-16T21:56:50;102612.31;;;20.73;66.07
38786;BME280;24535;45.508;12.252;2022-10-16T21:59:17;102620.09;;;20.77;66.16
38786;BME280;24535;45.508;12.252;2022-10-16T22:01:42;102612.44;;;20.72;65.70
38786;BME280;24535;45.508;12.252;2022-10-16T22:04:13;102619.50;;;20.73;66.24
38786;BME280;24535;45.508;12.252;2022-10-16T22:09:38;102626.53;;;20.74;65.80
38786;BME280;24535;45.508;12.252;2022-10-16T22:12:34;102610.00;;;20.69;65.38
38786;BME280;24535;45.508;12.252;2022-10-16T22:14:59;102620.22;;;20.64;65.45
38786;BME280;24535;45.508;12.252;2022-10-16T22:17:25;102624.25;;;20.58;65.40
38786;BME280;24535;45.508;12.252;2022-10-16T22:19:50;102620.22;;;20.53;65.66
38786;BME280;24535;45.508;12.252;2022-10-16T22:22:15;102626.69;;;20.50;65.88
38786;BME280;24535;45.508;12.252;2022-10-16T22:24:41;102629.56;;;20.47;65.83
38786;BME280;24535;45.508;12.252;2022-10-16T22:27:06;102633.47;;;20.43;65.90
38786;BME280;24535;45.508;12.252;2022-10-16T22:29:32;102632.22;;;20.36;65.54
38786;BME280;24535;45.508;12.252;2022-10-16T22:31:57;102635.13;;;20.33;65.68
38786;BME280;24535;45.508;12.252;2022-10-16T22:34:23;102637.47;;;20.26;66.25
38786;BME280;24535;45.508;12.252;2022-10-16T22:36:48;102641.84;;;20.27;66.09
38786;BME280;24535;45.508;12.252;2022-10-16T22:39:15;102642.06;;;20.24;66.52
38786;BME280;24535;45.508;12.252;2022-10-16T22:41:41;102643.75;;;20.25;66.52
38786;BME280;24535;45.508;12.252;2022-10-16T22:44:10;102643.75;;;20.25;66.61
38786;BME280;24535;45.508;12.252;2022-10-16T22:46:36;102646.44;;;20.25;66.83
38786;BME280;24535;45.508;12.252;2022-10-16T22:49:01;102642.81;;;20.26;66.49
38786;BME280;24535;45.508;12.252;2022-10-16T22:51:30;102651.56;;;20.28;66.25
38786;BME280;24535;45.508;12.252;2022-10-16T22:54:14;102643.03;;;20.23;66.62
38786;BME280;24535;45.508;12.252;2022-10-16T22:56:40;102646.69;;;20.22;66.76
38786;BME280;24535;45.508;12.252;2022-10-16T22:59:06;102648.50;;;20.21;66.32
38786;BME280;24535;45.508;12.252;2022-10-16T23:01:38;102652.28;;;20.19;66.27
38786;BME280;24535;45.508;12.252;2022-10-16T23:04:17;102652.38;;;20.17;66.81
38786;BME280;24535;45.508;12.252;2022-10-16T23:06:49;102655.19;;;20.16;66.46
38786;BME280;24535;45.508;12.252;2022-10-16T23:09:14;102642.78;;;20.15;65.97
38786;BME280;24535;45.508;12.252;2022-10-16T23:11:40;102647.66;;;20.10;66.36
38786;BME280;24535;45.508;12.252;2022-10-16T23:14:05;102662.72;;;20.11;66.63
38786;BME280;24535;45.508;12.252;2022-10-16T23:22:33;102668.66;;;20.03;66.19
38786;BME280;24535;45.508;12.252;2022-10-16T23:24:58;102659.88;;;20.01;66.13
38786;BME280;24535;45.508;12.252;2022-10-16T23:27:25;102662.06;;;19.96;66.48
38786;BME280;24535;45.508;12.252;2022-10-16T23:29:54;102662.06;;;19.96;66.57
38786;BME280;24535;45.508;12.252;2022-10-16T23:32:19;102656.84;;;19.94;66.34
38786;BME280;24535;45.508;12.252;2022-10-16T23:34:45;102657.81;;;19.93;66.42
38786;BME280;24535;45.508;12.252;2022-10-16T23:37:11;102665.94;;;19.92;66.46
38786;BME280;24535;45.508;12.252;2022-10-16T23:39:36;102663.41;;;19.90;66.49